Las Vegas, Nevada
Traffic Map
Current Weather Conditions
Las Vegas, Nevada
Scattered Clouds
Scattered Clouds
35°
Feels Like: 35°
Wind Chill: 35° Ceiling: Unl
Heat Index: 35° Visibility: 10mi
Dew Point: Wind: 7mph
Humidity: 18% Direction: 160° (SSE)
Pressure: 29.89in Gusts: 0mph
Raw Report DataKLAS 291556Z 16006KT 10SM SCT250 35/07 A2989 RMK AO2 SLP088 T03500072
Traffic Incident Summary
Active as of:
Severity:
Category:
InformationThere was an issue retrieving the traffic information for this location. Please try a different location or try again shortly.
Advertisements
Track Severe Weather on mobile